createdAt,value
2022-10-13T00:00:46.748Z,100466.31
2022-10-13T00:03:13.252Z,100464.38
2022-10-13T00:05:42.116Z,100470.19
2022-10-13T00:08:09.556Z,100469.47
2022-10-13T00:10:38.550Z,100466.19
2022-10-13T00:13:06.315Z,100469.84
2022-10-13T00:15:33.340Z,100465.00
2022-10-13T00:17:59.829Z,100457.94
2022-10-13T00:20:26.359Z,100461.00
2022-10-13T00:22:52.793Z,100466.00
2022-10-13T00:25:19.315Z,100454.19
2022-10-13T00:27:45.732Z,100456.88
2022-10-13T00:30:12.251Z,100456.13
2022-10-13T00:32:38.931Z,100458.47
2022-10-13T00:35:05.655Z,100456.50
2022-10-13T00:37:32.135Z,100456.66
2022-10-13T00:39:59.001Z,100465.44
2022-10-13T00:42:28.340Z,100469.56
2022-10-13T00:45:02.037Z,100452.16
2022-10-13T00:47:32.891Z,100451.91
2022-10-13T00:49:59.756Z,100459.38
2022-10-13T00:52:26.949Z,100454.25
2022-10-13T00:54:55.563Z,100445.75
2022-10-13T00:57:22.722Z,100444.41
2022-10-13T00:59:49.340Z,100439.66
2022-10-13T01:02:16.144Z,100440.75
2022-10-13T01:04:47.258Z,100438.31
2022-10-13T01:07:17.426Z,100443.56
2022-10-13T01:09:47.248Z,100433.56
2022-10-13T01:12:29.468Z,100432.19
2022-10-13T01:15:04.055Z,100443.63
2022-10-13T01:17:38.943Z,100438.03
2022-10-13T01:20:43.553Z,100442.78
2022-10-13T01:23:53.125Z,100436.06
2022-10-13T01:27:04.121Z,100426.16
2022-10-13T01:29:50.923Z,100426.13
2022-10-13T01:32:29.583Z,100421.94
2022-10-13T01:35:12.220Z,100414.91
2022-10-13T01:37:39.959Z,100424.09
2022-10-13T01:40:06.590Z,100418.22
2022-10-13T01:43:02.154Z,100418.81
2022-10-13T01:45:32.382Z,100420.53
2022-10-13T01:48:00.917Z,100423.69
2022-10-13T01:50:28.099Z,100420.31
2022-10-13T01:52:55.150Z,100422.03
2022-10-13T01:55:21.583Z,100409.41
2022-10-13T01:57:48.081Z,100418.03
2022-10-13T02:00:17.067Z,100415.41
2022-10-13T02:02:52.790Z,100410.28
2022-10-13T02:05:29.999Z,100409.06
2022-10-13T02:08:04.628Z,100404.91
2022-10-13T02:10:44.796Z,100406.88
2022-10-13T02:13:13.347Z,100402.47
2022-10-13T02:15:43.456Z,100402.22
2022-10-13T02:18:12.936Z,100405.75
2022-10-13T02:20:41.374Z,100409.84
2022-10-13T02:23:11.953Z,100413.81
2022-10-13T02:25:47.603Z,100406.13
2022-10-13T02:28:15.274Z,100400.09
2022-10-13T02:30:42.167Z,100400.25
2022-10-13T02:33:09.052Z,100398.03
2022-10-13T02:35:35.695Z,100408.75
2022-10-13T02:38:02.257Z,100400.06
2022-10-13T02:40:28.833Z,100402.34
2022-10-13T02:42:55.544Z,100401.25
2022-10-13T02:45:22.300Z,100401.66
2022-10-13T02:47:48.764Z,100404.63
2022-10-13T02:50:15.325Z,100400.13
2022-10-13T02:52:41.768Z,100408.81
2022-10-13T02:55:08.531Z,100407.09
2022-10-13T02:57:35.321Z,100402.84
2022-10-13T03:00:01.945Z,100408.47
2022-10-13T03:02:28.521Z,100399.50
2022-10-13T03:04:55.013Z,100397.22
2022-10-13T03:07:21.659Z,100409.31
2022-10-13T03:09:48.163Z,100398.69
2022-10-13T03:12:14.778Z,100401.16
2022-10-13T03:14:41.303Z,100398.16
2022-10-13T03:17:12.459Z,100389.00
2022-10-13T03:19:39.881Z,100390.09
2022-10-13T03:22:06.468Z,100398.56
2022-10-13T03:24:32.938Z,100390.66
2022-10-13T03:26:59.397Z,100385.84
2022-10-13T03:29:25.904Z,100387.13
2022-10-13T03:31:52.418Z,100388.00
2022-10-13T03:34:20.295Z,100386.31
2022-10-13T03:36:47.069Z,100386.56
2022-10-13T03:39:13.788Z,100380.47
2022-10-13T03:41:40.290Z,100382.72
2022-10-13T03:44:07.576Z,100381.50
2022-10-13T03:46:35.095Z,100387.41
2022-10-13T03:49:02.047Z,100380.81
2022-10-13T03:51:28.756Z,100377.88
2022-10-13T03:53:55.212Z,100378.72
2022-10-13T03:56:24.086Z,100387.72
2022-10-13T03:58:54.270Z,100390.31
2022-10-13T04:01:23.218Z,100388.34
2022-10-13T04:03:51.942Z,100386.25
2022-10-13T04:06:18.495Z,100386.13
2022-10-13T04:08:45.056Z,100384.41
2022-10-13T04:11:14.181Z,100379.78
2022-10-13T04:13:41.581Z,100386.13
2022-10-13T04:16:17.463Z,100388.22
2022-10-13T04:18:45.133Z,100385.91
2022-10-13T04:21:14.339Z,100384.47
2022-10-13T04:23:40.803Z,100381.78
2022-10-13T04:26:07.364Z,100371.19
2022-10-13T04:28:35.926Z,100374.81
2022-10-13T04:31:03.418Z,100373.56
2022-10-13T04:33:30.112Z,100373.38
2022-10-13T04:35:57.372Z,100371.66
2022-10-13T04:38:23.913Z,100374.47
2022-10-13T04:40:50.487Z,100368.53
2022-10-13T04:43:17.373Z,100374.47
2022-10-13T04:45:43.877Z,100371.66
2022-10-13T04:48:10.365Z,100365.47
2022-10-13T04:50:36.796Z,100374.22
2022-10-13T04:53:03.494Z,100369.84
2022-10-13T04:55:30.089Z,100369.13
2022-10-13T04:57:56.548Z,100363.53
2022-10-13T05:00:23.064Z,100360.31
2022-10-13T05:02:49.819Z,100349.31
2022-10-13T05:05:16.366Z,100352.97
2022-10-13T05:07:42.816Z,100347.28
2022-10-13T05:10:09.648Z,100350.69
2022-10-13T05:12:36.186Z,100350.28
2022-10-13T05:15:03.673Z,100347.91
2022-10-13T05:17:35.304Z,100338.59
2022-10-13T05:20:02.454Z,100343.53
2022-10-13T05:22:28.914Z,100340.72
2022-10-13T05:24:55.318Z,100343.13
2022-10-13T05:27:23.145Z,100342.88
2022-10-13T05:29:49.652Z,100338.25
2022-10-13T05:32:16.219Z,100338.22
2022-10-13T05:34:42.860Z,100338.97
2022-10-13T05:37:09.347Z,100339.81
2022-10-13T05:39:35.873Z,100348.00
2022-10-13T05:42:02.404Z,100340.56
2022-10-13T05:44:29.832Z,100338.72
2022-10-13T05:46:56.906Z,100339.66
2022-10-13T05:49:23.391Z,100335.13
2022-10-13T05:51:53.391Z,100332.63
2022-10-13T05:54:24.387Z,100342.25
2022-10-13T05:56:54.390Z,100330.31
2022-10-13T05:59:26.760Z,100332.63
2022-10-13T06:01:53.869Z,100335.31
2022-10-13T06:04:24.241Z,100346.81
2022-10-13T06:06:50.964Z,100359.69
2022-10-13T06:09:17.698Z,100361.22
2022-10-13T06:11:44.244Z,100354.03
2022-10-13T06:14:10.645Z,100358.31
2022-10-13T06:16:37.112Z,100360.66
2022-10-13T06:19:05.089Z,100363.50
2022-10-13T06:21:31.823Z,100374.66
2022-10-13T06:23:58.333Z,100375.59
2022-10-13T06:26:24.800Z,100366.94
2022-10-13T06:28:55.614Z,100383.69
2022-10-13T06:31:24.962Z,100372.94
2022-10-13T06:33:51.502Z,100378.34
2022-10-13T06:36:18.154Z,100375.16
2022-10-13T06:38:44.636Z,100376.75
2022-10-13T06:41:12.772Z,100375.47
2022-10-13T06:43:40.563Z,100379.44
2022-10-13T06:46:07.866Z,100387.81
2022-10-13T06:48:34.749Z,100381.25
2022-10-13T06:51:09.453Z,100390.69
2022-10-13T06:53:35.872Z,100391.09
2022-10-13T06:56:04.720Z,100397.22
2022-10-13T06:58:31.339Z,100397.34
2022-10-13T07:00:58.042Z,100393.72
2022-10-13T07:03:25.294Z,100402.25
2022-10-13T07:05:52.111Z,100399.69
2022-10-13T07:08:19.076Z,100406.13
2022-10-13T07:10:45.755Z,100401.16
2022-10-13T07:13:12.192Z,100400.94
2022-10-13T07:15:39.682Z,100396.97
2022-10-13T07:18:08.451Z,100404.25
2022-10-13T07:20:35.315Z,100408.16
2022-10-13T07:23:01.916Z,100407.09
2022-10-13T07:25:28.918Z,100407.13
2022-10-13T07:27:55.643Z,100412.72
2022-10-13T07:30:22.173Z,100411.13
2022-10-13T07:32:48.843Z,100406.53
2022-10-13T07:35:15.572Z,100407.09
2022-10-13T07:37:42.085Z,100397.84
2022-10-13T07:40:09.055Z,100399.34
2022-10-13T07:42:35.564Z,100389.06
2022-10-13T07:45:02.024Z,100387.09
2022-10-13T07:47:28.935Z,100379.50
2022-10-13T07:49:55.794Z,100376.66
2022-10-13T07:52:22.681Z,100372.59
2022-10-13T07:54:50.382Z,100372.03
2022-10-13T07:57:17.087Z,100369.19
2022-10-13T07:59:43.615Z,100370.56
2022-10-13T08:02:10.085Z,100372.72
2022-10-13T08:04:37.032Z,100373.94
2022-10-13T08:07:05.572Z,100372.53
2022-10-13T08:09:40.443Z,100366.78
2022-10-13T08:12:06.905Z,100365.50
2022-10-13T08:14:33.901Z,100366.06
2022-10-13T08:17:01.519Z,100363.00
2022-10-13T08:19:28.536Z,100358.59
2022-10-13T08:21:59.572Z,100358.66
2022-10-13T08:24:27.609Z,100353.78
2022-10-13T08:26:54.037Z,100355.66
2022-10-13T08:29:22.521Z,100344.47
2022-10-13T08:31:53.912Z,100343.25
2022-10-13T08:34:21.546Z,100334.00
2022-10-13T08:36:48.771Z,100337.38
2022-10-13T08:39:15.150Z,100335.03
2022-10-13T08:41:46.511Z,100336.72
2022-10-13T08:45:05.859Z,100329.91
2022-10-13T08:47:30.305Z,100330.59
2022-10-13T08:50:01.516Z,100318.56
2022-10-13T08:52:43.875Z,100319.22
2022-10-13T08:55:33.407Z,100316.19
2022-10-13T08:58:01.245Z,100314.50
2022-10-13T09:00:29.596Z,100322.91
2022-10-13T09:03:19.892Z,100317.34
2022-10-13T09:06:09.484Z,100316.13
2022-10-13T09:08:45.606Z,100325.47
2022-10-13T09:11:13.150Z,100313.59
2022-10-13T09:13:40.162Z,100312.59
2022-10-13T09:16:07.424Z,100312.91
2022-10-13T09:18:34.728Z,100305.19
2022-10-13T09:21:18.327Z,100299.97
2022-10-13T09:23:49.914Z,100302.94
2022-10-13T09:26:24.864Z,100304.63
2022-10-13T09:28:52.626Z,100303.50
2022-10-13T09:31:27.798Z,100289.44
2022-10-13T09:34:12.324Z,100293.09
2022-10-13T09:36:38.805Z,100296.69
2022-10-13T09:39:14.508Z,100284.06
2022-10-13T09:41:42.701Z,100283.81
2022-10-13T09:44:27.844Z,100288.59
2022-10-13T09:47:04.222Z,100281.50
2022-10-13T09:49:38.243Z,100280.13
2022-10-13T09:52:16.820Z,100271.66
2022-10-13T09:55:02.080Z,100273.78
2022-10-13T09:57:48.349Z,100274.59
2022-10-13T10:00:26.657Z,100274.66
2022-10-13T10:03:11.655Z,100269.69
2022-10-13T10:05:55.390Z,100272.88
2022-10-13T10:08:50.928Z,100271.91
2022-10-13T10:11:25.381Z,100267.44
2022-10-13T10:13:55.918Z,100270.97
2022-10-13T10:16:32.105Z,100253.69
2022-10-13T10:19:20.660Z,100255.25
2022-10-13T10:22:03.931Z,100261.91
2022-10-13T10:24:38.806Z,100257.00
2022-10-13T10:30:04.402Z,100261.06
2022-10-13T10:32:40.863Z,100261.41
2022-10-13T10:35:45.317Z,100256.16
2022-10-13T10:38:32.414Z,100253.25
2022-10-13T10:41:25.760Z,100255.47
2022-10-13T10:44:00.885Z,100251.34
2022-10-13T10:46:40.817Z,100245.47
2022-10-13T10:49:33.849Z,100246.78
2022-10-13T10:52:02.109Z,100247.22
2022-10-13T10:54:49.071Z,100241.06
2022-10-13T10:57:51.316Z,100232.03
2022-10-13T11:00:21.981Z,100228.06
2022-10-13T11:03:10.835Z,100226.13
2022-10-13T11:06:15.100Z,100223.38
2022-10-13T11:08:43.675Z,100216.06
2022-10-13T11:11:24.759Z,100208.44
2022-10-13T11:14:06.588Z,100204.59
2022-10-13T11:16:55.465Z,100201.34
2022-10-13T11:19:32.194Z,100195.97
2022-10-13T11:21:58.753Z,100190.78
2022-10-13T11:24:34.938Z,100181.63
2022-10-13T11:27:07.593Z,100181.38
2022-10-13T11:29:51.617Z,100170.34
2022-10-13T11:32:36.175Z,100169.41
2022-10-13T11:35:05.749Z,100166.16
2022-10-13T11:38:05.590Z,100162.41
2022-10-13T11:40:58.262Z,100150.50
2022-10-13T11:43:32.813Z,100155.25
2022-10-13T11:46:11.356Z,100147.03
2022-10-13T11:49:18.417Z,100159.72
2022-10-13T11:51:57.254Z,100149.78
2022-10-13T11:54:32.421Z,100147.63
2022-10-13T11:56:59.066Z,100146.19
2022-10-13T11:59:33.531Z,100144.03
2022-10-13T12:02:20.837Z,100141.56
2022-10-13T12:05:00.769Z,100134.59
2022-10-13T12:07:32.705Z,100134.19
2022-10-13T12:09:59.402Z,100127.78
2022-10-13T12:12:26.231Z,100132.06
2022-10-13T12:14:54.914Z,100135.69
2022-10-13T12:17:24.461Z,100128.66
2022-10-13T12:19:51.309Z,100134.50
2022-10-13T12:22:17.853Z,100123.16
2022-10-13T12:25:00.105Z,100129.63
2022-10-13T12:27:27.940Z,100123.25
2022-10-13T12:29:54.533Z,100124.94
2022-10-13T12:32:31.451Z,100126.84
2022-10-13T12:35:19.710Z,100130.66
2022-10-13T12:37:47.058Z,100128.09
2022-10-13T12:40:15.897Z,100118.91
2022-10-13T12:42:42.483Z,100128.44
2022-10-13T12:45:20.125Z,100125.00
2022-10-13T12:47:47.384Z,100121.88
2022-10-13T12:50:40.653Z,100118.38
2022-10-13T12:53:24.743Z,100123.72
2022-10-13T12:55:58.670Z,100125.41
2022-10-13T12:58:33.674Z,100123.41
2022-10-13T13:01:21.507Z,100111.69
2022-10-13T13:03:57.559Z,100115.16
2022-10-13T13:06:29.675Z,100111.25
2022-10-13T13:09:20.929Z,100109.31
2022-10-13T13:11:49.090Z,100117.13
2022-10-13T13:14:37.622Z,100112.59
2022-10-13T13:20:29.564Z,100109.53
2022-10-13T13:22:56.114Z,100105.13
2022-10-13T13:25:23.122Z,100108.34
2022-10-13T13:27:50.251Z,100101.63
2022-10-13T13:30:19.311Z,100110.63
2022-10-13T13:32:45.732Z,100105.69
2022-10-13T13:35:12.656Z,100106.16
2022-10-13T13:37:42.083Z,100113.06
2022-10-13T13:40:15.397Z,100111.16
2022-10-13T13:42:41.895Z,100112.03
2022-10-13T13:45:12.857Z,100108.88
2022-10-13T13:47:39.565Z,100104.03
2022-10-13T13:50:13.912Z,100111.16
2022-10-13T13:52:41.693Z,100112.66
2022-10-13T13:55:08.741Z,100099.41
2022-10-13T13:57:35.368Z,100104.25
2022-10-13T14:00:02.018Z,100098.97
2022-10-13T14:02:28.611Z,100098.31
2022-10-13T14:04:55.274Z,100086.59
2022-10-13T14:07:22.084Z,100079.88
2022-10-13T14:09:48.753Z,100075.41
2022-10-13T14:12:15.175Z,100078.75
2022-10-13T14:14:41.614Z,100075.16
2022-10-13T14:17:08.299Z,100069.94
2022-10-13T14:19:34.808Z,100071.16
2022-10-13T14:22:09.209Z,100072.03
2022-10-13T14:24:35.978Z,100069.91
2022-10-13T14:27:02.645Z,100064.66
2022-10-13T14:29:29.085Z,100066.78
2022-10-13T14:31:55.619Z,100073.16
2022-10-13T14:34:22.165Z,100071.69
2022-10-13T14:36:48.645Z,100065.81
2022-10-13T14:39:15.286Z,100063.28
2022-10-13T14:41:41.775Z,100074.22
2022-10-13T14:44:11.499Z,100066.44
2022-10-13T14:46:38.013Z,100065.16
2022-10-13T14:49:04.501Z,100065.56
2022-10-13T14:51:45.632Z,100057.38
2022-10-13T14:54:12.102Z,100063.00
2022-10-13T14:56:38.776Z,100053.97
2022-10-13T14:59:07.034Z,100058.16
2022-10-13T15:01:34.332Z,100061.06
2022-10-13T15:04:01.847Z,100059.22
2022-10-13T15:06:28.666Z,100053.09
2022-10-13T15:08:55.420Z,100059.16
2022-10-13T15:11:22.413Z,100061.03
2022-10-13T15:13:48.930Z,100052.63
2022-10-13T15:16:21.132Z,100048.06
2022-10-13T15:18:48.182Z,100052.25
2022-10-13T15:21:16.782Z,100043.66
2022-10-13T15:23:43.776Z,100044.91
2022-10-13T15:26:12.008Z,100034.44
2022-10-13T15:28:40.744Z,100039.59
2022-10-13T15:31:07.292Z,100032.69
2022-10-13T15:33:33.774Z,100035.13
2022-10-13T15:36:00.501Z,100037.38
2022-10-13T15:38:27.117Z,100031.94
2022-10-13T15:40:59.476Z,100031.06
2022-10-13T15:43:25.981Z,100026.16
2022-10-13T15:45:57.633Z,100031.31
2022-10-13T15:48:24.241Z,100030.91
2022-10-13T15:50:50.647Z,100031.28
2022-10-13T15:53:17.395Z,100030.44
2022-10-13T15:55:43.804Z,100032.06
2022-10-13T15:58:13.676Z,100026.63
2022-10-13T16:00:40.872Z,100025.28
2022-10-13T16:03:07.669Z,100026.09
2022-10-13T16:05:34.053Z,100026.88
2022-10-13T16:08:00.435Z,100031.41
2022-10-13T16:10:27.079Z,100036.75
2022-10-13T16:12:54.902Z,100027.22
2022-10-13T16:15:21.289Z,100039.59
2022-10-13T16:17:47.735Z,100026.84
2022-10-13T16:20:14.685Z,100029.66
2022-10-13T16:22:41.120Z,100030.81
2022-10-13T16:25:08.044Z,100030.69
2022-10-13T16:27:34.437Z,100035.75
2022-10-13T16:30:00.866Z,100024.38
2022-10-13T16:32:27.259Z,100027.84
2022-10-13T16:34:53.663Z,100033.19
2022-10-13T16:37:20.622Z,100032.09
2022-10-13T16:39:51.441Z,100031.50
2022-10-13T16:42:18.503Z,100032.34
2022-10-13T16:44:45.085Z,100040.19
2022-10-13T16:47:15.941Z,100039.88
2022-10-13T16:49:44.704Z,100042.84
2022-10-13T16:52:11.131Z,100053.19
2022-10-13T16:54:37.634Z,100044.34
2022-10-13T16:57:04.159Z,100044.72
2022-10-13T16:59:30.648Z,100048.28
2022-10-13T17:01:57.867Z,100047.63
2022-10-13T17:04:24.613Z,100047.13
2022-10-13T17:06:51.333Z,100053.94
2022-10-13T17:09:17.694Z,100054.13
2022-10-13T17:11:44.125Z,100052.81
2022-10-13T17:14:12.688Z,100055.31
2022-10-13T17:16:39.145Z,100057.84
2022-10-13T17:19:06.951Z,100061.59
2022-10-13T17:21:33.756Z,100062.69
2022-10-13T17:24:00.156Z,100065.09
2022-10-13T17:26:26.836Z,100072.25
2022-10-13T17:28:53.809Z,100076.13
2022-10-13T17:31:22.516Z,100063.28
2022-10-13T17:33:49.842Z,100068.63
2022-10-13T17:36:20.458Z,100063.94
2022-10-13T17:38:48.085Z,100062.69
2022-10-13T17:41:15.103Z,100063.56
2022-10-13T17:43:41.677Z,100075.16
2022-10-13T17:46:34.921Z,100068.41
2022-10-13T17:48:59.424Z,100070.50
2022-10-13T17:51:26.147Z,100073.72
2022-10-13T17:53:55.052Z,100068.84
2022-10-13T17:56:23.762Z,100072.44
2022-10-13T17:58:50.965Z,100071.28
2022-10-13T18:01:23.094Z,100062.19
2022-10-13T18:03:51.811Z,100069.81
2022-10-13T18:06:20.842Z,100067.09
2022-10-13T18:08:47.298Z,100070.97
2022-10-13T18:11:15.654Z,100070.63
2022-10-13T18:13:43.322Z,100069.06
2022-10-13T18:16:12.669Z,100064.16
2022-10-13T18:18:39.127Z,100053.66
2022-10-13T18:21:07.152Z,100064.66
2022-10-13T18:23:37.430Z,100063.06
2022-10-13T18:26:09.703Z,100064.47
2022-10-13T18:28:40.112Z,100064.09
2022-10-13T18:31:23.038Z,100063.25
2022-10-13T18:33:50.000Z,100069.16
2022-10-13T18:36:24.541Z,100066.78
2022-10-13T18:38:52.123Z,100066.94
2022-10-13T18:41:21.123Z,100066.78
2022-10-13T18:43:47.679Z,100060.38
2022-10-13T18:46:14.243Z,100067.13
2022-10-13T18:48:40.997Z,100061.53
2022-10-13T18:51:09.359Z,100057.44
2022-10-13T18:53:38.563Z,100056.63
2022-10-13T18:56:07.024Z,100055.53
2022-10-13T18:58:33.939Z,100065.22
2022-10-13T19:01:06.210Z,100051.69
2022-10-13T19:03:34.771Z,100056.75
2022-10-13T19:06:06.351Z,100056.81
2022-10-13T19:08:33.055Z,100050.53
2022-10-13T19:10:59.506Z,100047.34
2022-10-13T19:13:26.589Z,100038.44
2022-10-13T19:16:02.826Z,100047.25
2022-10-13T19:18:29.523Z,100043.59
2022-10-13T19:20:56.008Z,100040.22
2022-10-13T19:23:22.481Z,100034.53
2022-10-13T19:25:49.230Z,100043.16
2022-10-13T19:28:15.834Z,100038.09
2022-10-13T19:30:42.734Z,100041.34
2022-10-13T19:33:10.120Z,100038.97
2022-10-13T19:35:52.732Z,100037.81
2022-10-13T19:38:19.298Z,100036.94
2022-10-13T19:40:49.596Z,100033.91
2022-10-13T19:43:19.741Z,100032.25
2022-10-13T19:45:57.421Z,100030.69
2022-10-13T19:48:26.447Z,100033.22
2022-10-13T19:50:53.032Z,100030.66
2022-10-13T19:53:19.699Z,100025.41
2022-10-13T19:55:47.641Z,100037.22
2022-10-13T19:58:16.153Z,100040.25
2022-10-13T20:00:44.642Z,100036.50
2022-10-13T20:03:12.170Z,100026.53
2022-10-13T20:05:40.430Z,100034.09
2022-10-13T20:08:08.226Z,100025.69
2022-10-13T20:10:39.086Z,100024.31
2022-10-13T20:13:06.959Z,100020.03
2022-10-13T20:15:33.966Z,100027.63
2022-10-13T20:18:09.243Z,100025.44
2022-10-13T20:20:36.348Z,100026.22
2022-10-13T20:23:02.821Z,100025.00
2022-10-13T20:25:29.940Z,100034.59
2022-10-13T20:27:56.474Z,100025.81
2022-10-13T20:30:23.131Z,100027.16
2022-10-13T20:32:49.576Z,100026.47
2022-10-13T20:35:16.120Z,100027.41
2022-10-13T20:37:42.510Z,100026.00
2022-10-13T20:40:09.318Z,100027.53
2022-10-13T20:42:37.036Z,100021.59
2022-10-13T20:45:04.401Z,100021.38
2022-10-13T20:47:30.858Z,100021.84
2022-10-13T20:49:57.340Z,100022.16
2022-10-13T20:52:23.865Z,100026.25
2022-10-13T20:54:50.273Z,100027.47
2022-10-13T20:57:16.695Z,100025.81
2022-10-13T20:59:43.098Z,100020.31
2022-10-13T21:02:12.967Z,100026.41
2022-10-13T21:04:39.543Z,100027.47
2022-10-13T21:07:06.023Z,100025.50
2022-10-13T21:09:32.613Z,100022.16
2022-10-13T21:11:59.056Z,100025.19
2022-10-13T21:14:25.544Z,100014.72
2022-10-13T21:16:52.099Z,100022.47
2022-10-13T21:19:18.600Z,100024.50
2022-10-13T21:21:45.040Z,100025.50
2022-10-13T21:24:11.477Z,100017.56
2022-10-13T21:26:38.083Z,100016.38
2022-10-13T21:29:05.253Z,100009.47
2022-10-13T21:31:31.860Z,100015.63
2022-10-13T21:33:58.433Z,100010.19
2022-10-13T21:36:30.653Z,100012.50
2022-10-13T21:38:59.814Z,100007.44
2022-10-13T21:41:26.763Z,99999.66
2022-10-13T21:43:54.028Z,99998.75
2022-10-13T21:46:25.448Z,99999.28
2022-10-13T21:48:56.502Z,100001.97
2022-10-13T21:51:34.631Z,99991.50
2022-10-13T21:54:05.961Z,99991.66
2022-10-13T21:56:33.366Z,99993.13
2022-10-13T21:59:00.358Z,99994.19
2022-10-13T22:01:27.268Z,99992.53
2022-10-13T22:03:56.244Z,99996.75
2022-10-13T22:06:22.803Z,99994.88
2022-10-13T22:08:50.829Z,99988.59
2022-10-13T22:11:17.997Z,99987.34
2022-10-13T22:13:44.459Z,99993.59
2022-10-13T22:16:16.921Z,99989.50
2022-10-13T22:18:43.672Z,99987.00
2022-10-13T22:21:18.526Z,99979.94
2022-10-13T22:23:45.499Z,99981.78
2022-10-13T22:26:12.851Z,99978.56
2022-10-13T22:28:42.516Z,99974.59
2022-10-13T22:31:11.987Z,99973.59
2022-10-13T22:33:39.944Z,99971.25
2022-10-13T22:36:08.425Z,99971.34
2022-10-13T22:38:35.506Z,99971.81
2022-10-13T22:41:03.759Z,99963.91
2022-10-13T22:43:30.218Z,99962.91
2022-10-13T22:45:56.727Z,99962.72
2022-10-13T22:48:23.236Z,99975.88
2022-10-13T22:50:49.624Z,99964.25
2022-10-13T22:53:16.096Z,99974.34
2022-10-13T22:55:42.652Z,99967.94
2022-10-13T22:58:12.254Z,99972.66
2022-10-13T23:00:39.053Z,99967.25
2022-10-13T23:03:06.257Z,99967.88
2022-10-13T23:05:32.711Z,99970.88
2022-10-13T23:07:59.183Z,99966.13
2022-10-13T23:10:25.701Z,99971.16
2022-10-13T23:12:52.146Z,99972.63
2022-10-13T23:15:24.883Z,99972.06
2022-10-13T23:17:52.005Z,99961.91
2022-10-13T23:20:19.598Z,99974.13
2022-10-13T23:22:46.245Z,99968.78
2022-10-13T23:25:12.912Z,99974.00
2022-10-13T23:27:39.667Z,99972.22
2022-10-13T23:30:07.410Z,99962.94
2022-10-13T23:32:34.855Z,99961.56
2022-10-13T23:35:01.522Z,99966.41
2022-10-13T23:37:27.941Z,99968.25
2022-10-13T23:39:54.361Z,99964.31
2022-10-13T23:42:20.738Z,99961.38
2022-10-13T23:44:47.217Z,99958.19
2022-10-13T23:47:13.779Z,99955.25
2022-10-13T23:49:40.197Z,99955.00
2022-10-13T23:52:10.791Z,99956.44
2022-10-13T23:54:37.671Z,99951.53
2022-10-13T23:57:04.198Z,99957.75
2022-10-13T23:59:30.698Z,99956.75
